Latest Weather Observations for Yanakie

IDV60801

Issued at 1:35 pm EST Friday 19 September 2014 (issued every 30 minutes, with the page automatically refreshed every 10 minutes)

About weather observations | Map of weather stations | Latest weather observations for VIC | Other Formats
Station Details ID: 085301 Name: YANAKIE Lat: -38.81 Lon: 146.19 Height: 13.3 m
Data from the previous 72 hours. | See also: Recent months at Yanakie
Date/Time
EST
Temp
°C
App
Temp
°C
Dew
Point
Rel
Hum
%
Delta-T
°C
Wind Press
QNH
hPa
Press
MSL
hPa
Rain
since 9 am
mm
Dir
 
Spd
km/h
Gust
km/h
Spd
kts
Gust
kts
19/01:30pm 13.5 8.0 9.2 75 2.2 W 28 33 15 18 1022.5 1022.5 0.0
19/01:00pm 14.3 8.5 9.3 72 2.5 WSW 30 41 16 22 1022.7 1022.7 0.0
19/12:30pm 14.0 9.9 10.0 77 2.1 WSW 22 33 12 18 1022.8 1022.8 0.0
19/12:00pm 12.9 7.6 8.4 74 2.2 W 26 37 14 20 1022.8 1022.8 0.0
19/11:30am 13.7 7.4 9.6 76 2.1 WSW 33 48 18 26 1022.9 1022.9 0.0
19/11:00am 13.7 7.6 9.6 76 2.1 WSW 32 41 17 22 1022.9 1022.9 0.0
19/10:30am 12.5 6.5 8.8 78 1.8 SW 30 43 16 23 1023.2 1023.2 0.0
19/10:00am 12.7 8.1 9.5 81 1.6 WSW 24 32 13 17 1023.1 1023.1 0.0
19/09:30am 12.6 7.7 9.8 83 1.4 WSW 26 39 14 21 1023.1 1023.1 0.0
19/09:00am 11.9 7.3 9.8 87 1.1 W 24 30 13 16 1023.1 1023.1 1.4
19/08:30am 10.3 4.3 8.6 89 0.8 WSW 30 41 16 22 1023.2 1023.2 1.4
19/08:00am 11.6 7.3 9.2 85 1.2 W 22 30 12 16 1022.8 1022.8 0.8
19/07:30am 10.8 7.3 8.9 88 0.9 W 17 22 9 12 1022.6 1022.6 0.8
19/07:00am 10.6 6.4 8.2 85 1.2 W 20 26 11 14 1022.5 1022.5 0.8
19/06:30am 10.4 6.2 8.2 86 1.1 WSW 20 32 11 17 1022.3 1022.3 0.8
19/06:00am 10.1 6.5 8.2 88 0.9 W 17 24 9 13 1021.9 1021.9 0.8
19/05:30am 9.9 5.6 8.0 88 0.9 W 20 30 11 16 1021.8 1021.8 0.8
19/05:00am 10.3 5.4 8.4 88 0.9 W 24 32 13 17 1021.6 1021.6 0.8
19/04:30am 9.9 5.7 8.3 90 0.8 WSW 20 30 11 16 1021.5 1021.5 0.8
19/04:00am 9.5 3.3 7.9 90 0.8 WSW 30 39 16 21 1021.8 1021.8 0.8
19/03:30am 9.7 3.9 7.8 88 0.9 WSW 28 39 15 21 1021.7 1021.7 0.4
19/03:00am 10.3 6.0 7.9 85 1.2 W 20 30 11 16 1021.5 1021.5 0.2
19/02:30am 10.0 6.6 7.8 86 1.1 W 15 19 8 10 1021.8 1021.8 0.2
19/02:00am 9.4 6.3 7.2 86 1.0 WNW 13 19 7 10 1021.9 1021.9 0.2
19/01:30am 9.3 5.0 7.1 86 1.0 W 19 22 10 12 1022.3 1022.3 0.2
19/01:00am 9.5 5.6 6.9 84 1.2 W 17 22 9 12 1022.3 1022.3 0.2
19/12:30am 9.9 5.6 7.2 83 1.3 W 19 33 10 18 1022.4 1022.4 0.2
19/12:00am 9.4 6.2 6.7 83 1.3 WNW 13 19 7 10 1022.4 1022.4 0.2
 
Date/Time
EST
Temp
°C
App
Temp
°C
Dew
Point
Rel
Hum
%
Delta-T
°C
Wind Press
QNH
hPa
Press
MSL
hPa
Rain
since 9 am
mm
Dir
 
Spd
km/h
Gust
km/h
Spd
kts
Gust
kts
18/11:30pm 10.0 5.0 6.3 78 1.7 W 22 28 12 15 1023.0 1023.0 0.2
18/11:00pm 10.2 5.3 5.0 70 2.3 WSW 20 32 11 17 1023.1 1023.1 0.2
18/10:30pm 10.5 5.7 4.9 68 2.5 W 19 30 10 16 1023.1 1023.1 0.2
18/10:00pm 10.6 5.2 4.7 67 2.6 WSW 22 30 12 16 1023.2 1023.2 0.2
18/09:30pm 10.2 4.1 4.8 69 2.4 WSW 26 35 14 19 1023.1 1023.1 0.2
18/09:00pm 10.1 4.2 4.0 66 2.7 SW 24 37 13 20 1023.1 1023.1 0.2
18/08:30pm 10.7 4.7 5.3 69 2.5 SW 26 35 14 19 1022.8 1022.8 0.2
18/08:00pm 10.3 4.4 5.7 73 2.1 WSW 26 35 14 19 1022.7 1022.7 0.2
18/07:30pm 10.6 5.1 5.8 72 2.2 WSW 24 37 13 20 1022.5 1022.5 0.2
18/07:00pm 10.4 3.5 4.8 68 2.5 SW 30 37 16 20 1022.5 1022.5 0.2
18/06:30pm 10.2 3.8 5.2 71 2.3 WSW 28 37 15 20 1022.3 1022.3 0.2
18/06:00pm 10.5 3.7 5.1 69 2.4 WSW 30 39 16 21 1022.2 1022.2 0.2
18/05:30pm 10.9 4.3 6.1 72 2.2 SW 30 39 16 21 1021.9 1021.9 0.2
18/05:00pm 11.3 5.3 7.0 75 2.0 WSW 28 43 15 23 1021.5 1021.5 0.2
18/04:30pm 10.9 4.6 7.2 78 1.8 WSW 30 43 16 23 1021.3 1021.3 0.2
18/04:00pm 11.7 6.3 8.0 78 1.8 WSW 26 37 14 20 1021.2 1021.2 0.2
18/03:30pm 12.0 5.6 6.9 71 2.4 WSW 30 44 16 24 1021.0 1021.0 0.0
18/03:00pm 12.7 6.9 8.0 73 2.3 WSW 28 35 15 19 1021.0 1021.0 0.0
18/02:30pm 13.2 6.6 7.9 70 2.6 WSW 32 41 17 22 1020.9 1020.9 0.0
18/02:00pm 13.3 7.3 7.1 66 3.0 SW 28 37 15 20 1020.7 1020.7 0.0
18/01:30pm 14.4 7.7 7.2 62 3.5 SW 32 43 17 23 1020.7 1020.7 0.0
18/01:00pm 13.6 7.6 7.2 65 3.1 SW 28 37 15 20 1020.7 1020.7 0.0
18/12:30pm 13.6 7.3 7.2 65 3.1 SW 30 41 16 22 1020.8 1020.8 0.0
18/12:00pm 13.5 7.2 7.3 66 3.0 SW 30 37 16 20 1020.8 1020.8 0.0
18/11:30am 13.5 8.1 7.9 69 2.8 SW 26 35 14 19 1020.9 1020.9 0.0
18/11:00am 12.7 6.4 7.6 71 2.5 SW 30 41 16 22 1021.0 1021.0 0.0
18/10:30am 11.7 6.6 7.6 76 2.0 WSW 24 33 13 18 1020.9 1020.9 0.0
18/10:00am 12.7 7.5 7.4 70 2.6 WSW 24 35 13 19 1020.8 1020.8 0.0
18/09:30am 12.9 8.3 6.7 66 3.0 SW 20 28 11 15 1020.6 1020.6 0.0
18/09:00am 10.7 4.8 5.9 72 2.2 SW 26 33 14 18 1020.4 1020.4 4.4
18/08:30am 10.8 6.4 6.7 76 1.9 SW 19 37 10 20 1020.1 1020.1 4.4
18/08:00am 10.3 3.5 5.3 71 2.3 SW 30 41 16 22 1019.8 1019.8 4.4
18/07:30am 10.6 6.2 6.7 77 1.8 WSW 19 26 10 14 1019.4 1019.4 4.4
18/07:00am 9.4 3.1 5.6 77 1.7 WSW 28 37 15 20 1019.1 1019.1 4.4
18/06:30am 8.8 3.5 4.8 76 1.8 WSW 22 32 12 17 1018.8 1018.8 4.4
18/06:00am 9.5 3.5 5.5 76 1.8 SW 26 30 14 16 1018.4 1018.4 4.4
18/05:30am 9.1 3.4 5.1 76 1.8 WSW 24 32 13 17 1018.0 1018.0 4.4
18/05:05am 9.6 3.1 4.8 72 2.1 WSW 28 46 15 25 1017.7 1017.7 4.4
18/05:00am 9.6 3.5 4.8 72 2.1 WSW 26 39 14 21 1017.6 1017.6 4.4
18/04:30am 9.3 2.4 4.5 72 2.1 WSW 30 39 16 21 1017.2 1017.2 4.4
18/04:00am 9.2 1.9 4.6 73 2.0 SW 32 44 17 24 1016.9 1016.9 4.4
18/03:30am 9.3 2.4 4.7 73 2.0 WSW 30 39 16 21 1016.5 1016.5 4.4
18/03:00am 9.3 2.1 4.9 74 2.0 WSW 32 41 17 22 1016.5 1016.5 4.4
18/02:30am 9.1 2.4 5.7 79 1.5 WSW 30 44 16 24 1016.6 1016.6 4.4
18/02:00am 9.0 1.9 6.4 84 1.2 WSW 33 54 18 29 1016.6 1016.6 4.2
18/01:55am 8.9 2.7 6.3 84 1.2 W 28 48 15 26 1016.5 1016.5 4.2
18/01:30am 8.3 2.0 5.8 84 1.1 W 28 37 15 20 1016.4 1016.4 4.2
18/01:12am 7.9 -2.4 4.8 81 1.4 WSW 48 67 26 36 1016.7 1016.7 4.2
18/01:08am 8.5 -2.8 5.3 80 1.4 SW 54 67 29 36 1016.8 1016.8 4.0
18/01:03am 9.5 3.3 6.2 80 1.5 WSW 28 46 15 25 1016.7 1016.7 4.0
18/01:00am 9.0 3.2 6.1 82 1.3 WSW 26 33 14 18 1016.5 1016.5 4.0
18/12:35am 8.9 0.8 5.1 77 1.7 SW 37 48 20 26 1016.7 1016.7 4.0
18/12:30am 9.8 1.6 5.0 72 2.2 WSW 37 54 20 29 1016.6 1016.6 4.0
18/12:06am 9.4 1.8 4.0 69 2.4 WSW 33 52 18 28 1016.4 1016.4 4.0
18/12:00am 9.6 1.7 4.4 70 2.3 WSW 35 48 19 26 1016.3 1016.3 4.0
 
Date/Time
EST
Temp
°C
App
Temp
°C
Dew
Point
Rel
Hum
%
Delta-T
°C
Wind Press
QNH
hPa
Press
MSL
hPa
Rain
since 9 am
mm
Dir
 
Spd
km/h
Gust
km/h
Spd
kts
Gust
kts
17/11:50pm 9.7 1.2 5.1 73 2.1 WSW 39 57 21 31 1016.3 1016.3 4.0
17/11:30pm 9.5 1.1 5.5 76 1.8 WSW 39 52 21 28 1016.3 1016.3 4.0
17/11:00pm 9.6 1.4 4.6 71 2.2 WSW 37 54 20 29 1016.2 1016.2 4.0
17/10:37pm 9.9 2.7 5.7 75 1.9 WSW 33 54 18 29 1016.2 1016.2 4.0
17/10:30pm 9.1 2.4 5.5 78 1.6 W 30 39 16 21 1016.2 1016.2 4.0
17/10:08pm 9.4 2.6 5.2 75 1.9 WSW 30 48 16 26 1016.0 1016.0 4.0
17/10:00pm 9.4 3.0 5.2 75 1.9 WSW 28 39 15 21 1016.0 1016.0 4.0
17/09:30pm 9.5 1.1 3.7 67 2.5 WSW 37 48 20 26 1016.0 1016.0 4.0
17/09:00pm 9.4 2.1 4.4 71 2.2 W 32 43 17 23 1015.8 1015.8 4.0
17/08:30pm 9.3 0.5 3.5 67 2.5 WSW 39 52 21 28 1015.6 1015.6 4.0
17/08:16pm 8.8 1.6 4.8 76 1.8 W 32 50 17 27 1015.4 1015.4 4.0
17/08:00pm 8.6 1.1 4.6 76 1.8 W 33 46 18 25 1015.4 1015.4 4.0
17/07:39pm 8.8 -0.7 4.0 72 2.1 WSW 43 63 23 34 1015.4 1015.4 3.8
17/07:30pm 9.7 0.8 2.8 62 3.0 WSW 39 52 21 28 1015.0 1015.0 3.8
17/07:00pm 9.7 2.2 4.3 69 2.4 WSW 33 46 18 25 1014.8 1014.8 3.8
17/06:30pm 9.7 0.8 3.2 64 2.8 WSW 39 50 21 27 1014.4 1014.4 3.8
17/06:00pm 9.2 0.5 4.2 71 2.2 W 39 54 21 29 1014.0 1014.0 3.8
17/05:37pm 9.7 1.1 4.9 72 2.2 WSW 39 57 21 31 1013.7 1013.7 3.6
17/05:30pm 9.6 0.6 4.8 72 2.1 WSW 41 56 22 30 1013.6 1013.6 3.6
17/05:00pm 10.4 1.3 4.1 65 2.8 W 41 56 22 30 1012.9 1012.9 3.4
17/04:37pm 10.4 1.9 5.0 69 2.4 WSW 39 59 21 32 1012.7 1012.7 3.4
17/04:30pm 10.8 1.7 6.0 72 2.2 WSW 43 57 23 31 1012.5 1012.5 3.4
17/04:01pm 10.9 1.8 5.7 70 2.4 WSW 43 61 23 33 1012.2 1012.2 3.4
17/04:00pm 10.9 1.9 6.3 73 2.2 WSW 43 56 23 30 1012.2 1012.2 3.4
17/03:37pm 10.7 1.2 5.0 68 2.6 W 44 63 24 34 1011.8 1011.8 3.4
17/03:30pm 10.9 0.7 5.2 68 2.6 WSW 48 61 26 33 1011.9 1011.9 3.4
17/03:00pm 10.5 0.3 5.3 70 2.4 WSW 48 67 26 36 1011.3 1011.3 3.4
17/02:30pm 9.2 0.8 7.5 89 0.8 W 41 63 22 34 1011.1 1011.1 3.4
17/02:00pm 9.0 -1.1 5.9 81 1.4 WSW 48 69 26 37 1011.1 1011.1 2.4
17/01:30pm 8.4 -2.6 6.7 89 0.8 W 54 80 29 43 1011.0 1011.0 2.4
17/01:02pm 12.1 1.8 6.6 69 2.6 W 50 70 27 38 1010.3 1010.3 1.8
17/01:00pm 11.8 1.3 5.7 66 2.8 W 50 63 27 34 1010.2 1010.2 1.8
17/12:30pm 12.5 3.7 7.4 71 2.5 WSW 43 59 23 32 1010.5 1010.5 1.8
17/12:09pm 11.7 3.5 8.0 78 1.8 W 41 63 22 34 1010.4 1010.4 1.8
17/12:00pm 11.3 3.0 9.2 87 1.1 W 43 54 23 29 1010.6 1010.6 1.8
17/11:39am 11.6 3.3 7.9 78 1.8 W 41 59 22 32 1010.4 1010.4 1.2
17/11:30am 12.1 4.3 8.2 77 1.9 W 39 52 21 28 1010.4 1010.4 1.2
17/11:00am 11.1 3.0 8.7 85 1.2 WSW 41 56 22 30 1010.6 1010.6 1.2
17/10:30am 11.6 4.8 9.3 86 1.2 W 35 50 19 27 1010.7 1010.7 0.8
17/10:00am 11.2 6.6 9.6 90 0.8 WNW 24 35 13 19 1010.6 1010.6 0.8
17/09:30am 11.3 6.7 9.7 90 0.8 WNW 24 39 13 21 1010.5 1010.5 0.6
17/09:00am 10.3 6.5 9.2 93 0.5 WSW 19 30 10 16 1010.5 1010.5 14.8
17/08:30am 11.0 6.1 9.9 93 0.6 NW 26 35 14 19 1010.5 1010.5 14.2
17/08:00am 9.5 5.0 8.6 94 0.4 NW 22 32 12 17 1010.7 1010.7 14.2
17/07:30am 9.5 5.4 8.7 95 0.4 NW 20 26 11 14 1010.6 1010.6 14.2
17/07:00am 8.9 4.7 8.1 95 0.4 WNW 20 28 11 15 1010.7 1010.7 13.8
17/06:30am 8.7 5.0 7.9 95 0.4 WNW 17 24 9 13 1011.0 1011.0 13.4
17/06:00am 8.7 3.6 7.8 94 0.4 WNW 24 33 13 18 1010.9 1010.9 11.8
17/05:30am 9.4 5.9 8.6 95 0.4 WNW 17 24 9 13 1010.7 1010.7 11.2
17/05:00am 9.5 5.6 8.7 95 0.4 WNW 19 28 10 15 1010.6 1010.6 10.6
17/04:30am 8.7 5.4 7.9 95 0.4 NW 15 20 8 11 1010.4 1010.4 10.4
17/04:00am 9.0 6.5 8.2 95 0.4 WNW 11 15 6 8 1010.5 1010.5 10.4
17/03:30am 9.4 6.3 8.8 96 0.3 WNW 15 22 8 12 1010.7 1010.7 10.4
17/03:00am 9.6 5.8 9.0 96 0.3 W 19 28 10 15 1010.7 1010.7 9.4
17/02:30am 9.1 6.3 8.5 96 0.3 WNW 13 19 7 10 1010.7 1010.7 8.4
17/02:00am 9.4 7.0 8.8 96 0.3 WNW 11 15 6 8 1010.9 1010.9 8.4
17/01:30am 9.4 7.0 8.8 96 0.3 WNW 11 15 6 8 1011.2 1011.2 8.4
17/01:00am 9.3 7.3 8.5 95 0.4 NW 9 13 5 7 1011.4 1011.4 8.4
17/12:30am 9.0 6.9 8.2 95 0.4 NW 9 11 5 6 1011.6 1011.6 8.4
17/12:00am 7.7 5.3 6.8 94 0.4 WNW 9 11 5 6 1011.5 1011.5 8.4
 
Date/Time
EST
Temp
°C
App
Temp
°C
Dew
Point
Rel
Hum
%
Delta-T
°C
Wind Press
QNH
hPa
Press
MSL
hPa
Rain
since 9 am
mm
Dir
 
Spd
km/h
Gust
km/h
Spd
kts
Gust
kts
16/11:30pm 8.6 6.7 7.7 94 0.4 W 7 9 4 5 1011.7 1011.7 8.4
16/11:00pm 9.6 7.6 8.5 93 0.5 W 9 11 5 6 1012.0 1012.0 8.4
16/10:30pm 8.7 6.7 7.3 91 0.7 WSW 7 9 4 5 1011.8 1011.8 8.4
16/10:00pm 10.3 8.0 8.9 91 0.7 SW 11 17 6 9 1011.9 1011.9 8.4
16/09:30pm 11.3 8.1 10.0 92 0.7 SW 17 24 9 13 1011.7 1011.7 8.4
16/09:00pm 10.9 7.3 9.7 92 0.6 SW 19 24 10 13 1011.5 1011.5 8.4
16/08:30pm 11.6 7.6 10.5 93 0.6 SW 22 30 12 16 1011.3 1011.3 8.4
16/08:00pm 11.4 7.4 10.5 94 0.5 SW 22 30 12 16 1010.9 1010.9 8.4
16/07:30pm 11.8 8.3 10.9 94 0.5 SW 20 28 11 15 1010.4 1010.4 8.4
16/07:00pm 12.3 9.1 11.4 94 0.5 WSW 19 24 10 13 1009.8 1009.8 8.4
16/06:30pm 12.5 9.1 11.4 93 0.6 WSW 20 28 11 15 1009.4 1009.4 8.4
16/06:00pm 12.9 9.7 11.8 93 0.6 W 20 26 11 14 1009.2 1009.2 8.4
16/05:30pm 13.0 9.4 11.7 92 0.7 W 22 30 12 16 1009.0 1009.0 8.4
16/05:00pm 13.2 9.3 12.1 93 0.6 W 24 32 13 17 1008.8 1008.8 8.4
16/04:30pm 13.5 9.8 12.6 94 0.5 W 24 32 13 17 1008.6 1008.6 8.4
16/04:00pm 13.5 11.9 12.7 95 0.4 W 13 17 7 9 1008.3 1008.3 8.4
16/03:30pm 12.1 10.1 11.5 96 0.3 WSW 13 19 7 10 1008.3 1008.3 8.0
16/03:00pm 12.6 9.4 11.8 95 0.4 SW 20 26 11 14 1007.9 1007.9 4.6
16/02:30pm 13.7 12.5 12.8 94 0.5 SW 11 17 6 9 1007.7 1007.7 1.4
16/02:00pm 13.7 11.7 12.6 93 0.6 SSW 15 22 8 12 1007.6 1007.6 0.8

Other Formats:

Comma delimited format used in spreadsheet applications
http://www.bom.gov.au/fwo/IDV60801/IDV60801.94911.axf

JavaScript Object Notation format (JSON) in row-major order
http://www.bom.gov.au/fwo/IDV60801/IDV60801.94911.json